Time;durP1;ratioP1;P1;durP2;ratioP2;P2;SDS_P1;SDS_P2;PMS_P1;PMS_P2;Temp;Humidity;BMP_temperature;BMP_pressure;BME280_temperature;BME280_humidity;BME280_pressure;Samples;Min_cycle;Max_cycle;Signal;HPM_P1;HPM_P2
2022/11/15 00:01:07;;;;;;;20.90;11.43;;;;;;;7.13;88.71;101114.84;6045354;29;20608;-80
2022/11/15 00:04:48;;;;;;;17.60;11.23;;;;;;;7.03;89.48;101111.13;6038435;29;20344;-80
2022/11/15 00:08:30;;;;;;;16.20;9.43;;;;;;;7.00;89.43;101109.50;6051279;29;20620;-79
2022/11/15 00:12:09;;;;;;;11.30;7.77;;;;;;;6.95;89.92;101108.94;6041165;29;20228;-79
2022/11/15 00:15:49;;;;;;;14.57;10.03;;;;;;;7.05;89.56;101109.19;6045372;29;20230;-80
2022/11/15 00:19:28;;;;;;;13.73;8.60;;;;;;;6.97;89.23;101107.03;6041164;29;20242;-80
2022/11/15 00:23:09;;;;;;;11.57;8.63;;;;;;;7.02;89.93;101106.72;6043876;29;20465;-79
2022/11/15 00:26:48;;;;;;;11.67;7.83;;;;;;;7.13;88.75;101106.81;6033530;29;20608;-79
2022/11/15 00:30:28;;;;;;;9.83;8.23;;;;;;;6.87;90.08;101111.31;6043149;29;20704;-79
2022/11/15 00:34:08;;;;;;;13.50;8.30;;;;;;;7.00;89.83;101112.19;6044169;29;20234;-80
2022/11/15 00:37:47;;;;;;;12.37;8.47;;;;;;;6.85;90.26;101113.25;6039436;29;20497;-78
2022/11/15 00:41:28;;;;;;;14.60;9.90;;;;;;;6.82;90.55;101107.25;6032079;29;20253;-80
2022/11/15 00:45:09;;;;;;;14.43;9.93;;;;;;;6.88;90.65;101106.81;6044260;29;20239;-79
2022/11/15 00:48:48;;;;;;;11.97;9.50;;;;;;;6.89;90.04;101105.84;6043921;29;20238;-80
2022/11/15 00:52:28;;;;;;;12.23;8.03;;;;;;;6.79;90.62;101107.44;6034541;29;20230;-79
2022/11/15 00:56:08;;;;;;;12.90;8.60;;;;;;;6.87;90.86;101105.97;6042122;29;20246;-78
2022/11/15 00:59:48;;;;;;;11.87;8.53;;;;;;;6.90;90.95;101107.56;6040650;29;20239;-81
2022/11/15 01:03:28;;;;;;;14.13;8.37;;;;;;;6.73;91.38;101122.13;6038155;29;20564;-80
2022/11/15 01:07:07;;;;;;;12.73;8.27;;;;;;;6.75;91.18;101105.94;6027731;29;20264;-78
2022/11/15 01:10:47;;;;;;;19.20;10.13;;;;;;;6.77;91.15;101101.34;6045501;29;20805;-78
2022/11/15 01:14:27;;;;;;;15.47;11.00;;;;;;;6.72;90.98;101095.44;6036378;29;20266;-80
2022/11/15 01:18:07;;;;;;;16.07;9.70;;;;;;;6.65;91.37;101099.53;6039110;29;20233;-80
2022/11/15 01:21:49;;;;;;;13.60;9.63;;;;;;;6.72;91.30;101098.13;6036467;29;20323;-80
2022/11/15 01:25:29;;;;;;;11.80;9.80;;;;;;;6.81;90.78;101090.31;6047409;29;20234;-81
2022/11/15 01:29:08;;;;;;;13.07;9.27;;;;;;;6.75;90.94;101087.19;6039097;29;20249;-80
2022/11/15 01:32:48;;;;;;;10.80;8.87;;;;;;;6.83;90.34;101077.66;6018140;29;20349;-79
2022/11/15 01:36:29;;;;;;;11.70;8.27;;;;;;;6.79;90.10;101091.38;6036068;29;20230;-80
2022/11/15 01:40:09;;;;;;;12.93;9.60;;;;;;;6.78;90.23;101082.47;6050162;29;20230;-79
2022/11/15 01:43:52;;;;;;;16.30;10.93;;;;;;;6.60;90.78;101078.41;6012732;29;20234;-79
2022/11/15 01:47:36;;;;;;;10.80;9.03;;;;;;;6.59;91.07;101073.16;6038097;29;20241;-81
2022/11/15 01:51:18;;;;;;;12.80;8.63;;;;;;;6.52;91.03;101079.91;6032120;29;20265;-80
2022/11/15 01:55:06;;;;;;;13.53;9.27;;;;;;;6.44;91.28;101083.13;6042575;29;20250;-80
2022/11/15 01:58:46;;;;;;;14.10;8.77;;;;;;;6.40;91.33;101069.06;6041007;29;20270;-80
2022/11/15 02:02:26;;;;;;;10.63;8.87;;;;;;;6.41;91.66;101060.06;6033961;29;20225;-80
2022/11/15 02:06:06;;;;;;;13.30;9.03;;;;;;;6.42;91.46;101052.91;6044463;29;20253;-80
2022/11/15 02:09:47;;;;;;;13.87;9.40;;;;;;;6.31;91.75;101058.13;6036412;29;20261;-80
2022/11/15 02:13:28;;;;;;;13.23;8.37;;;;;;;6.23;91.78;101050.63;6031703;29;20529;-81
2022/11/15 02:17:24;;;;;;;10.70;8.27;;;;;;;6.29;92.58;101052.03;6041561;29;20237;-81
2022/11/15 02:21:18;;;;;;;11.70;8.10;;;;;;;6.30;91.73;101051.06;6040854;29;20241;-81
2022/11/15 02:25:13;;;;;;;9.87;7.70;;;;;;;6.24;92.33;101065.72;6038732;29;20250;-82
2022/11/15 02:29:03;;;;;;;13.43;8.53;;;;;;;6.22;92.59;101064.09;6043646;29;20246;-80
2022/11/15 02:32:49;;;;;;;12.60;8.90;;;;;;;6.20;92.75;101050.81;6034293;29;20234;-81
2022/11/15 02:36:36;;;;;;;11.57;8.07;;;;;;;6.16;92.88;101040.44;6027511;29;20258;-84
2022/11/15 02:40:28;;;;;;;9.77;8.20;;;;;;;6.10;93.35;101036.34;6040215;29;20242;-80
2022/11/15 02:44:15;;;;;;;11.40;8.07;;;;;;;6.07;93.03;101038.41;6031693;29;20545;-81
2022/11/15 02:47:59;;;;;;;8.87;7.93;;;;;;;6.10;93.52;101032.81;6034936;29;20616;-80
2022/11/15 02:51:40;;;;;;;12.23;8.80;;;;;;;6.10;93.26;101025.66;6030643;29;20238;-80
2022/11/15 02:55:28;;;;;;;13.50;8.83;;;;;;;6.13;93.13;101029.94;6041096;29;20237;-79
2022/11/15 02:59:42;;;;;;;11.33;8.80;;;;;;;6.13;93.05;101027.28;6036819;29;20234;-80
2022/11/15 03:03:41;;;;;;;10.40;9.30;;;;;;;6.16;92.79;101022.56;6032499;29;20695;-81
2022/11/15 03:07:29;;;;;;;16.77;8.33;;;;;;;5.99;93.22;101025.50;6034205;29;20745;-80
2022/11/15 03:11:12;;;;;;;12.63;9.03;;;;;;;5.93;93.79;101036.63;6036726;29;20935;-78
2022/11/15 03:14:57;;;;;;;9.87;7.47;;;;;;;5.91;94.28;101043.03;6042370;29;20242;-81
2022/11/15 03:18:42;;;;;;;11.10;6.97;;;;;;;5.92;94.31;101026.91;6038009;29;20246;-80
2022/11/15 03:22:27;;;;;;;10.33;9.17;;;;;;;5.92;94.22;101036.75;6041034;29;20229;-78
2022/11/15 03:26:10;;;;;;;10.00;7.30;;;;;;;5.91;94.15;101027.84;6043811;29;20237;-80
2022/11/15 03:29:54;;;;;;;11.73;7.80;;;;;;;5.92;94.23;101029.59;6038149;29;20237;-79
2022/11/15 03:33:33;;;;;;;13.43;8.73;;;;;;;5.97;94.28;101030.13;6048239;29;20309;-80
2022/11/15 03:37:16;;;;;;;15.43;10.93;;;;;;;5.91;94.15;101027.84;6035849;29;20233;-79
2022/11/15 03:41:00;;;;;;;12.87;7.40;;;;;;;5.92;94.07;101021.56;6047033;29;20486;-80
2022/11/15 03:44:47;;;;;;;13.07;7.73;;;;;;;6.05;94.19;101014.41;6039091;29;20238;-79
2022/11/15 03:48:31;;;;;;;13.23;6.50;;;;;;;6.18;93.53;101004.56;6043692;29;20230;-79
2022/11/15 03:52:11;;;;;;;11.53;6.77;;;;;;;6.32;92.84;101006.31;6042791;29;20233;-80
2022/11/15 03:55:52;;;;;;;8.37;7.10;;;;;;;6.15;93.31;101003.94;6048250;29;20237;-80
2022/11/15 03:59:31;;;;;;;7.90;7.07;;;;;;;6.15;93.38;101017.31;6044484;29;20230;-79
2022/11/15 04:03:10;;;;;;;10.10;6.90;;;;;;;6.20;93.38;101017.84;6043514;29;20569;-79
2022/11/15 04:06:50;;;;;;;9.80;6.80;;;;;;;6.14;93.53;101019.13;6030685;29;20225;-80
2022/11/15 04:10:29;;;;;;;13.60;8.87;;;;;;;6.24;93.54;101014.84;6042370;29;20239;-80
2022/11/15 04:14:10;;;;;;;10.50;7.07;;;;;;;6.27;93.65;101003.94;6037687;29;20596;-81
2022/11/15 04:17:51;;;;;;;11.77;8.30;;;;;;;6.29;93.37;101006.50;6039677;29;20253;-80
2022/11/15 04:25:28;;;;;;;9.77;7.03;;;;;;;6.36;92.64;101005.97;6044210;29;20522;-81
2022/11/15 04:33:06;;;;;;;7.20;6.50;;;;;;;6.43;92.49;101014.44;6044154;29;20706;-81
2022/11/15 04:40:43;;;;;;;8.10;6.80;;;;;;;6.62;92.11;101025.59;6039644;29;20230;-80
2022/11/15 04:44:22;;;;;;;7.40;6.30;;;;;;;6.66;91.70;101023.53;6034505;29;20516;-80
2022/11/15 04:48:01;;;;;;;8.83;6.23;;;;;;;6.77;90.99;101021.84;6039230;29;20230;-80
2022/11/15 04:51:43;;;;;;;8.37;6.27;;;;;;;6.92;91.11;101014.53;6035385;29;20237;-81
2022/11/15 04:55:22;;;;;;;10.93;5.90;;;;;;;7.06;90.04;101025.13;6041550;29;20260;-81
2022/11/15 04:59:01;;;;;;;8.87;6.47;;;;;;;7.10;89.78;101018.56;6040243;29;20266;-81
2022/11/15 05:06:39;;;;;;;12.27;9.20;;;;;;;6.97;89.87;101018.59;6031304;29;20230;-80
2022/11/15 05:10:20;;;;;;;8.70;6.87;;;;;;;6.88;90.46;101018.41;6038732;29;20241;-81
2022/11/15 05:13:59;;;;;;;10.13;7.50;;;;;;;6.93;90.42;101018.91;6052541;29;20607;-80
2022/11/15 05:17:39;;;;;;;8.47;7.47;;;;;;;6.93;91.07;101005.50;6039591;29;20497;-80
2022/11/15 05:21:18;;;;;;;17.97;8.47;;;;;;;7.02;90.67;101012.91;6031559;29;20257;-79
2022/11/15 05:24:57;;;;;;;7.53;6.30;;;;;;;7.18;90.64;101000.97;6049103;29;20237;-78
2022/11/15 05:28:39;;;;;;;7.80;6.00;;;;;;;7.34;89.58;101002.53;6045985;29;20272;-79
2022/11/15 05:32:19;;;;;;;8.47;5.83;;;;;;;7.36;90.33;101000.59;6043223;29;20619;-81
2022/11/15 05:36:03;;;;;;;11.47;6.97;;;;;;;7.48;89.85;100997.00;6040383;29;20614;-80
2022/11/15 05:39:42;;;;;;;8.63;5.90;;;;;;;7.43;89.54;101001.81;6041033;29;20238;-80
2022/11/15 05:43:22;;;;;;;11.10;6.83;;;;;;;7.45;89.73;100994.56;6041238;29;20233;-79
2022/11/15 05:47:05;;;;;;;7.07;6.33;;;;;;;7.54;89.60;101001.91;6035426;29;20241;-79
2022/11/15 05:50:47;;;;;;;8.50;6.40;;;;;;;7.56;90.18;101003.50;6042307;29;20245;-79
2022/11/15 05:54:27;;;;;;;9.47;6.90;;;;;;;7.48;90.22;100994.31;6036877;29;20818;-80
2022/11/15 05:58:07;;;;;;;10.17;6.37;;;;;;;7.53;90.98;101001.03;6034906;29;20591;-80
2022/11/15 06:01:46;;;;;;;8.93;6.50;;;;;;;7.41;91.00;101010.00;6020082;29;20241;-82
2022/11/15 06:05:27;;;;;;;7.93;6.90;;;;;;;7.38;92.16;101012.06;6032551;29;20230;-80
2022/11/15 06:09:08;;;;;;;10.50;6.47;;;;;;;7.45;92.00;101011.47;6034143;29;20238;-79
2022/11/15 06:12:48;;;;;;;10.30;6.23;;;;;;;7.48;91.37;101016.63;6016885;29;20312;-75
2022/11/15 06:16:27;;;;;;;11.50;6.70;;;;;;;7.53;91.86;101009.09;6010998;29;20876;-76
2022/11/15 06:20:07;;;;;;;11.13;5.80;;;;;;;7.54;92.16;101021.53;6036489;29;20268;-76
2022/11/15 06:23:48;;;;;;;9.80;7.10;;;;;;;7.67;91.54;101025.03;6033129;29;20242;-75
2022/11/15 06:27:28;;;;;;;8.13;7.40;;;;;;;7.59;91.54;101023.88;6037641;29;20244;-76
2022/11/15 06:31:09;;;;;;;7.83;5.87;;;;;;;7.58;91.14;101025.72;6037665;29;20254;-75
2022/11/15 06:34:48;;;;;;;9.50;6.83;;;;;;;7.63;91.76;101023.56;6038297;29;20287;-76
2022/11/15 06:38:27;;;;;;;7.83;6.37;;;;;;;7.64;91.59;101032.44;6042290;29;20237;-76
2022/11/15 06:42:09;;;;;;;8.73;6.57;;;;;;;7.68;91.30;101021.38;6027106;29;20237;-76
2022/11/15 06:45:48;;;;;;;10.13;7.30;;;;;;;7.65;91.07;101028.81;6034433;29;20241;-78
2022/11/15 06:49:28;;;;;;;10.10;7.93;;;;;;;7.58;91.65;101035.56;6014660;29;20242;-74
2022/11/15 06:53:08;;;;;;;7.47;6.20;;;;;;;7.46;92.54;101034.66;6018735;29;20253;-77
2022/11/15 06:56:47;;;;;;;11.43;7.07;;;;;;;7.65;91.99;101035.03;6008844;29;20261;-77
2022/11/15 07:00:28;;;;;;;11.03;6.60;;;;;;;7.68;90.66;101026.72;6019492;29;20234;-77
2022/11/15 07:04:08;;;;;;;8.40;5.40;;;;;;;7.59;90.93;101035.47;6011225;29;20660;-76
2022/11/15 07:07:52;;;;;;;8.57;6.33;;;;;;;7.77;91.18;101033.25;6014865;29;20614;-77
2022/11/15 07:11:33;;;;;;;8.67;6.27;;;;;;;7.88;90.41;101044.91;6007370;29;20648;-77
2022/11/15 07:15:12;;;;;;;11.70;8.40;;;;;;;7.86;89.63;101052.19;6016386;29;20227;-74
2022/11/15 07:18:53;;;;;;;7.17;5.77;;;;;;;7.78;90.16;101054.59;6037658;29;20241;-75
2022/11/15 07:22:32;;;;;;;7.57;6.60;;;;;;;7.97;89.83;101059.44;6034197;29;20233;-75
2022/11/15 07:26:12;;;;;;;9.13;6.87;;;;;;;7.87;90.33;101051.22;6029931;29;20226;-76
2022/11/15 07:29:51;;;;;;;12.23;6.63;;;;;;;7.56;91.27;101046.44;6049610;29;20249;-75
2022/11/15 07:33:31;;;;;;;13.50;6.70;;;;;;;7.70;91.02;101053.44;6047207;29;20870;-75
2022/11/15 07:37:12;;;;;;;9.17;5.20;;;;;;;7.84;89.74;101061.34;6030710;29;20258;-76
2022/11/15 07:40:57;;;;;;;11.40;7.17;;;;;;;7.72;89.96;101063.09;6041026;29;20269;-75
2022/11/15 07:44:37;;;;;;;6.57;5.23;;;;;;;7.69;90.96;101060.66;6035089;29;20868;-75
2022/11/15 07:48:16;;;;;;;10.30;6.97;;;;;;;7.80;89.89;101066.06;6037219;29;20651;-77
2022/11/15 07:51:55;;;;;;;7.80;6.33;;;;;;;7.82;89.83;101063.28;6025767;29;20578;-77
2022/11/15 07:55:37;;;;;;;7.67;6.30;;;;;;;7.81;89.92;101067.78;6037447;29;20656;-77
2022/11/15 07:59:16;;;;;;;7.30;5.77;;;;;;;7.70;90.52;101065.03;6031947;29;20249;-77
2022/11/15 08:03:02;;;;;;;7.37;4.97;;;;;;;7.83;90.44;101048.88;6037378;29;20237;-77
2022/11/15 08:06:41;;;;;;;10.37;6.93;;;;;;;7.93;88.99;101048.09;6027668;29;20249;-76
2022/11/15 08:10:21;;;;;;;7.87;6.03;;;;;;;7.91;89.21;101044.66;6040744;29;20245;-78
2022/11/15 08:14:01;;;;;;;8.73;6.13;;;;;;;7.80;89.68;101051.81;6041198;29;20246;-79
2022/11/15 08:17:40;;;;;;;11.03;7.40;;;;;;;7.79;90.72;101050.09;6032882;29;20241;-74
2022/11/15 08:21:21;;;;;;;9.93;7.60;;;;;;;7.98;89.98;101043.22;6025196;29;20221;-75
2022/11/15 08:25:00;;;;;;;13.23;8.23;;;;;;;8.06;89.77;101042.66;6041856;29;20234;-75
2022/11/15 08:28:39;;;;;;;8.17;5.40;;;;;;;8.04;89.16;101053.50;6048020;29;20230;-75
2022/11/15 08:32:20;;;;;;;7.57;6.00;;;;;;;8.00;89.41;101049.34;6046603;29;20232;-77
2022/11/15 08:36:01;;;;;;;7.87;6.37;;;;;;;8.09;89.53;101042.44;6039280;29;20230;-75
2022/11/15 08:39:41;;;;;;;8.70;7.67;;;;;;;8.07;89.08;101047.06;6047671;29;20237;-76
2022/11/15 08:43:20;;;;;;;8.43;7.20;;;;;;;8.18;88.99;101043.56;6051483;29;20256;-76
2022/11/15 08:47:00;;;;;;;8.33;6.57;;;;;;;8.30;88.84;101045.34;6028231;29;20238;-76
2022/11/15 08:50:40;;;;;;;6.63;5.27;;;;;;;8.21;89.13;101057.59;6044941;29;20752;-76
2022/11/15 08:54:19;;;;;;;8.47;7.03;;;;;;;8.18;89.18;101062.34;6038967;29;20230;-75
2022/11/15 08:57:59;;;;;;;8.93;7.10;;;;;;;8.22;89.10;101066.53;6039068;29;20259;-77
2022/11/15 09:01:38;;;;;;;10.17;6.80;;;;;;;8.43;89.07;101057.69;6025161;29;20607;-77
2022/11/15 09:05:18;;;;;;;10.17;5.60;;;;;;;8.54;87.40;101040.75;6045806;29;20233;-77
2022/11/15 09:08:59;;;;;;;9.33;5.57;;;;;;;8.50;88.42;101050.00;6040291;29;20242;-76
2022/11/15 09:12:38;;;;;;;8.37;5.43;;;;;;;8.71;87.58;101051.03;6037013;29;20229;-76
2022/11/15 09:16:18;;;;;;;8.10;6.43;;;;;;;8.84;86.86;101057.16;6024706;29;20234;-76
2022/11/15 09:19:58;;;;;;;8.87;6.50;;;;;;;9.07;86.40;101058.91;6053839;29;20234;-76
2022/11/15 09:23:37;;;;;;;6.43;5.57;;;;;;;9.19;85.64;101049.84;6039821;29;20238;-76
2022/11/15 09:27:18;;;;;;;10.67;7.30;;;;;;;9.26;85.80;101051.03;6045454;29;20237;-75
2022/11/15 09:30:59;;;;;;;5.23;4.33;;;;;;;9.12;85.85;101039.69;6045203;29;20245;-76
2022/11/15 09:34:38;;;;;;;5.53;5.00;;;;;;;9.33;86.21;101051.41;6035298;29;20612;-75
2022/11/15 09:38:18;;;;;;;4.77;4.33;;;;;;;9.74;84.96;101045.34;6045149;29;20591;-75
2022/11/15 09:42:22;;;;;;;10.30;6.60;;;;;;;9.94;83.51;101033.75;6031620;29;20228;-75
2022/11/15 09:46:16;;;;;;;6.87;5.67;;;;;;;10.04;82.49;101038.25;6042093;29;20514;-75
2022/11/15 09:50:00;;;;;;;11.63;7.47;;;;;;;10.34;81.51;101042.94;6041558;29;20233;-73
2022/11/15 09:53:32;;;;;;;8.57;6.53;;;;;;;10.10;82.21;101056.63;6030825;29;20222;-75
2022/11/15 09:56:54;;;;;;;8.00;6.53;;;;;;;10.25;81.25;101049.09;6030843;29;20249;-76
2022/11/15 10:00:20;;;;;;;8.20;5.57;;;;;;;10.43;80.75;101048.38;6044168;29;20336;-77
2022/11/15 10:03:42;;;;;;;7.93;5.47;;;;;;;10.10;82.54;101047.66;6035098;29;20246;-77
2022/11/15 10:07:11;;;;;;;6.17;4.77;;;;;;;10.16;82.99;101048.03;6043066;29;20218;-75
2022/11/15 10:10:40;;;;;;;10.20;4.97;;;;;;;9.89;84.00;101049.47;6037848;29;20237;-77
2022/11/15 10:14:03;;;;;;;6.63;5.53;;;;;;;9.80;84.15;101047.53;6042921;29;20352;-75
2022/11/15 10:17:50;;;;;;;6.43;5.07;;;;;;;9.92;84.11;101041.13;6044380;29;20245;-76
2022/11/15 10:21:18;;;;;;;8.43;5.70;;;;;;;9.84;84.21;101040.91;6041572;29;20226;-75
2022/11/15 10:24:47;;;;;;;10.03;6.50;;;;;;;9.74;84.99;101029.19;6038673;29;20316;-75
2022/11/15 10:28:15;;;;;;;7.77;5.37;;;;;;;9.83;85.31;101031.09;6042449;29;20229;-76
2022/11/15 10:31:41;;;;;;;4.97;4.53;;;;;;;9.95;84.90;101020.16;6041533;29;20237;-77
2022/11/15 10:35:17;;;;;;;9.90;6.27;;;;;;;9.98;84.82;101016.38;6043059;29;20226;-76
2022/11/15 10:38:53;;;;;;;8.07;4.70;;;;;;;10.03;84.68;101008.78;6031595;29;20253;-78
2022/11/15 10:42:24;;;;;;;8.70;5.50;;;;;;;9.96;84.71;101002.19;6040628;29;20225;-78
2022/11/15 10:45:46;;;;;;;7.77;5.03;;;;;;;10.09;85.05;101009.09;6041084;29;20625;-77
2022/11/15 10:49:15;;;;;;;7.53;5.10;;;;;;;10.03;85.28;101008.78;6045342;29;20257;-76
2022/11/15 10:52:44;;;;;;;8.30;4.80;;;;;;;10.07;84.99;101000.31;6037567;29;20324;-77
2022/11/15 10:56:12;;;;;;;7.57;4.70;;;;;;;10.02;85.27;101001.66;6041762;29;20635;-80
2022/11/15 10:59:36;;;;;;;6.93;4.17;;;;;;;9.95;85.75;100992.41;6039170;29;20320;-76
2022/11/15 11:02:59;;;;;;;9.07;4.80;;;;;;;10.00;86.35;100987.47;6037247;29;20253;-78
2022/11/15 11:06:20;;;;;;;6.23;4.37;;;;;;;10.14;85.67;100989.88;6038586;29;20230;-75
2022/11/15 11:09:42;;;;;;;6.20;5.53;;;;;;;10.28;85.48;100987.69;6041124;29;20341;-75
2022/11/15 11:13:14;;;;;;;8.47;5.97;;;;;;;10.36;84.86;100978.97;6043806;29;20279;-76
2022/11/15 11:16:45;;;;;;;5.43;4.13;;;;;;;10.40;84.36;100985.81;6030175;29;20230;-76
2022/11/15 11:20:18;;;;;;;9.53;4.90;;;;;;;10.46;84.15;100969.09;6040104;29;20261;-76
2022/11/15 11:23:47;;;;;;;5.93;5.37;;;;;;;10.27;84.56;100967.16;6039139;29;20242;-77
2022/11/15 11:27:19;;;;;;;10.03;4.73;;;;;;;10.38;84.44;100979.69;6030077;29;20332;-76
2022/11/15 11:30:49;;;;;;;8.37;4.00;;;;;;;10.38;84.59;100966.22;6040952;29;20288;-77
2022/11/15 11:34:21;;;;;;;5.97;5.07;;;;;;;10.41;84.15;100971.34;6040847;29;20628;-76
2022/11/15 11:37:49;;;;;;;6.03;4.77;;;;;;;10.38;84.28;100967.09;6042240;29;20241;-76
2022/11/15 11:41:21;;;;;;;7.20;5.53;;;;;;;10.59;83.71;100964.38;6033439;29;20242;-74
2022/11/15 11:44:52;;;;;;;5.37;4.87;;;;;;;10.65;83.70;100947.66;6042750;29;20230;-77
2022/11/15 11:48:14;;;;;;;8.93;4.50;;;;;;;10.69;83.39;100956.31;6037804;29;20233;-76
2022/11/15 11:51:39;;;;;;;7.80;6.40;;;;;;;10.78;83.39;100948.28;6036805;29;20338;-76
2022/11/15 11:55:06;;;;;;;5.43;3.93;;;;;;;10.85;83.93;100943.16;6039354;29;20553;-76
2022/11/15 11:58:34;;;;;;;5.07;4.20;;;;;;;10.90;83.63;100952.59;6034016;29;20280;-76
2022/11/15 12:01:58;;;;;;;8.73;4.20;;;;;;;10.78;83.30;100950.13;6038791;29;20615;-79
2022/11/15 12:05:27;;;;;;;9.30;4.30;;;;;;;10.83;83.63;100948.72;6044183;29;20220;-77
2022/11/15 12:08:54;;;;;;;4.50;4.10;;;;;;;10.97;83.53;100937.53;6040614;29;20299;-77
2022/11/15 12:12:28;;;;;;;5.40;3.43;;;;;;;11.09;83.05;100932.91;6032503;29;20316;-76
2022/11/15 12:15:55;;;;;;;4.13;3.83;;;;;;;11.17;82.24;100923.13;6041336;29;20650;-76
2022/11/15 12:19:17;;;;;;;6.70;4.80;;;;;;;11.47;80.97;100915.94;6033438;29;20625;-76
2022/11/15 12:22:44;;;;;;;5.63;4.40;;;;;;;11.99;79.41;100920.94;6036485;29;20257;-75
2022/11/15 12:26:08;;;;;;;4.27;3.80;;;;;;;12.73;76.13;100921.84;6047141;29;20257;-76
2022/11/15 12:29:34;;;;;;;5.20;3.90;;;;;;;12.41;76.30;100914.13;6042947;29;20234;-83
2022/11/15 12:32:58;;;;;;;7.30;4.47;;;;;;;12.66;76.19;100916.16;6042932;29;20238;-75
2022/11/15 12:36:38;;;;;;;6.07;5.40;;;;;;;13.22;73.54;100901.69;6040171;29;20229;-75
2022/11/15 12:40:19;;;;;;;7.03;4.43;;;;;;;13.31;73.93;100915.16;6040548;29;20238;-76
2022/11/15 12:43:42;;;;;;;5.30;4.77;;;;;;;13.01;74.62;100901.94;6038177;29;20300;-76
2022/11/15 12:47:22;;;;;;;5.47;3.83;;;;;;;13.22;74.50;100907.09;6038653;29;20708;-76
2022/11/15 12:50:57;;;;;;;4.90;3.77;;;;;;;13.11;74.62;100904.59;6044680;29;20230;-77
2022/11/15 12:54:52;;;;;;;15.50;4.70;;;;;;;13.43;73.62;100891.41;6040475;29;20237;-76
2022/11/15 12:58:43;;;;;;;4.73;4.23;;;;;;;13.49;73.28;100891.66;6043188;29;20317;-77
2022/11/15 13:02:18;;;;;;;5.47;4.07;;;;;;;13.36;73.51;100893.03;6042270;29;20512;-77
2022/11/15 13:06:16;;;;;;;5.80;4.23;;;;;;;12.63;76.62;100899.41;6043145;29;20234;-77
2022/11/15 13:09:56;;;;;;;5.10;3.13;;;;;;;12.58;76.99;100890.88;6038725;29;20328;-75
2022/11/15 13:13:45;;;;;;;6.67;3.80;;;;;;;12.44;77.73;100881.41;6038874;29;20498;-74
2022/11/15 13:17:27;;;;;;;4.60;3.80;;;;;;;12.55;77.14;100881.22;6041863;29;20320;-77
2022/11/15 13:20:48;;;;;;;4.27;3.63;;;;;;;12.60;77.44;100873.50;6039987;29;20237;-73
2022/11/15 13:24:14;;;;;;;6.80;6.10;;;;;;;12.46;77.78;100856.91;6027266;29;20234;-75
2022/11/15 13:27:35;;;;;;;9.47;5.97;;;;;;;12.52;77.28;100867.97;6039179;29;20242;-75
2022/11/15 13:31:00;;;;;;;4.70;3.93;;;;;;;12.44;77.88;100854.38;6030232;29;20258;-76
2022/11/15 13:34:28;;;;;;;9.00;4.60;;;;;;;12.58;77.35;100861.97;6031937;29;20601;-75
2022/11/15 13:37:49;;;;;;;5.53;4.93;;;;;;;12.59;77.46;100855.59;6034575;29;20321;-75
2022/11/15 13:41:20;;;;;;;6.07;3.87;;;;;;;12.42;78.50;100847.41;6032458;29;20264;-75
2022/11/15 13:44:54;;;;;;;6.27;4.53;;;;;;;12.50;78.25;100833.97;6032813;29;20806;-75
2022/11/15 13:48:17;;;;;;;4.33;3.70;;;;;;;12.50;77.86;100831.28;6038022;29;20591;-77
2022/11/15 13:51:43;;;;;;;6.17;4.70;;;;;;;12.55;77.92;100832.53;6041315;29;20600;-77
2022/11/15 13:55:09;;;;;;;6.00;3.83;;;;;;;12.55;78.02;100824.44;6040939;29;20233;-77
2022/11/15 13:58:32;;;;;;;6.07;4.03;;;;;;;12.49;78.51;100826.88;6037421;29;20233;-74
2022/11/15 14:01:54;;;;;;;6.90;5.03;;;;;;;12.49;78.23;100827.75;6040178;29;20230;-77
2022/11/15 14:05:19;;;;;;;4.33;3.63;;;;;;;12.38;78.65;100830.63;6043575;29;20234;-76
2022/11/15 14:08:40;;;;;;;7.27;4.53;;;;;;;12.30;79.07;100827.81;6034566;29;20226;-76
2022/11/15 14:12:03;;;;;;;5.70;3.77;;;;;;;12.32;78.94;100824.97;6043636;29;20237;-76
2022/11/15 14:15:30;;;;;;;5.30;4.50;;;;;;;12.26;79.35;100828.25;6040459;29;20238;-77
2022/11/15 14:18:54;;;;;;;5.00;4.13;;;;;;;12.35;79.76;100828.22;6039579;29;20241;-76
2022/11/15 14:22:20;;;;;;;16.07;4.27;;;;;;;12.29;79.63;100825.25;6042567;29;20242;-75
2022/11/15 14:25:53;;;;;;;5.00;4.03;;;;;;;12.17;80.18;100821.03;6054413;29;20520;-77
2022/11/15 14:29:24;;;;;;;3.53;3.10;;;;;;;12.12;80.84;100816.06;6038635;29;20257;-76
2022/11/15 14:32:48;;;;;;;3.93;3.40;;;;;;;12.06;80.19;100807.72;6037402;29;20242;-75
2022/11/15 14:36:13;;;;;;;4.23;3.90;;;;;;;11.99;80.92;100810.16;6046836;29;20245;-75
2022/11/15 14:39:35;;;;;;;6.30;4.83;;;;;;;11.91;81.51;100818.16;6040943;29;20234;-77
2022/11/15 14:42:56;;;;;;;5.73;3.43;;;;;;;11.84;82.01;100817.00;6040125;29;20234;-77
2022/11/15 14:46:17;;;;;;;4.73;4.07;;;;;;;11.81;82.46;100822.69;6037060;29;20229;-76
2022/11/15 14:49:40;;;;;;;6.10;3.73;;;;;;;11.74;81.76;100818.88;6032349;29;20517;-75
2022/11/15 14:53:02;;;;;;;4.57;3.60;;;;;;;11.68;82.44;100823.00;6038139;29;20242;-75
2022/11/15 14:56:24;;;;;;;7.13;4.47;;;;;;;11.63;82.94;100810.91;6040041;29;20265;-74
2022/11/15 14:59:45;;;;;;;5.13;3.90;;;;;;;11.58;82.94;100813.16;6039454;29;20642;-77
2022/11/15 15:03:07;;;;;;;4.83;4.33;;;;;;;11.52;83.38;100813.75;6035148;29;20238;-78
2022/11/15 15:06:30;;;;;;;4.50;4.10;;;;;;;11.44;83.58;100803.69;6045717;29;20253;-78
2022/11/15 15:09:51;;;;;;;4.83;4.10;;;;;;;11.34;83.73;100802.84;6033011;29;20234;-80
2022/11/15 15:13:18;;;;;;;4.77;3.97;;;;;;;11.30;84.51;100809.53;6038708;29;20231;-79
2022/11/15 15:16:39;;;;;;;6.13;5.60;;;;;;;11.20;85.04;100808.69;6045140;29;20230;-79
2022/11/15 15:20:00;;;;;;;5.13;4.13;;;;;;;11.09;84.99;100812.38;6038102;29;20336;-79
2022/11/15 15:23:22;;;;;;;5.57;4.03;;;;;;;11.00;85.22;100813.19;6037584;29;20234;-77
2022/11/15 15:26:43;;;;;;;6.33;4.30;;;;;;;10.95;86.36;100811.91;6039743;29;20460;-78
2022/11/15 15:30:07;;;;;;;5.17;3.37;;;;;;;10.89;85.46;100823.28;6040902;29;20262;-77
2022/11/15 15:33:28;;;;;;;5.27;4.10;;;;;;;10.81;85.88;100823.94;6036227;29;20325;-77
2022/11/15 15:36:48;;;;;;;4.60;3.10;;;;;;;10.75;86.18;100824.50;6034243;29;20238;-78
2022/11/15 15:40:14;;;;;;;5.27;4.73;;;;;;;10.74;86.13;100821.97;6043300;29;20233;-78
2022/11/15 15:43:35;;;;;;;3.37;3.00;;;;;;;10.69;86.82;100816.13;6035109;29;20729;-78
2022/11/15 15:46:58;;;;;;;8.73;4.40;;;;;;;10.64;87.16;100813.81;6039793;29;20247;-77
2022/11/15 15:50:23;;;;;;;4.57;3.30;;;;;;;10.62;86.74;100812.28;6032258;29;20234;-78
2022/11/15 15:53:44;;;;;;;6.17;3.67;;;;;;;10.59;87.11;100802.63;6037515;29;20237;-77
2022/11/15 15:57:06;;;;;;;3.67;3.13;;;;;;;10.58;86.80;100811.69;6024911;29;22632;-76
2022/11/15 16:00:26;;;;;;;4.33;3.87;;;;;;;10.58;86.91;100803.59;6040404;29;20238;-78
2022/11/15 16:03:49;;;;;;;5.47;3.60;;;;;;;10.59;87.62;100804.47;6033140;29;20234;-80
2022/11/15 16:07:17;;;;;;;5.17;4.27;;;;;;;10.55;87.81;100803.03;6037551;29;20229;-80
2022/11/15 16:10:38;;;;;;;4.07;3.67;;;;;;;10.55;87.73;100800.34;6037002;29;20233;-78
2022/11/15 16:13:59;;;;;;;5.53;4.03;;;;;;;10.63;87.86;100805.88;6039108;29;20257;-79
2022/11/15 16:17:23;;;;;;;3.77;3.47;;;;;;;10.65;87.68;100793.97;6049454;29;20233;-79
2022/11/15 16:20:49;;;;;;;5.73;5.13;;;;;;;10.70;87.55;100796.25;6034646;29;20249;-79
2022/11/15 16:24:10;;;;;;;5.80;5.23;;;;;;;10.71;87.72;100790.72;6031066;29;20230;-79
2022/11/15 16:27:30;;;;;;;4.40;4.00;;;;;;;10.73;86.47;100777.09;6040963;29;20234;-78
2022/11/15 16:31:02;;;;;;;7.90;4.47;;;;;;;10.67;86.98;100778.53;6037558;29;20234;-78
2022/11/15 16:34:24;;;;;;;5.50;4.23;;;;;;;10.65;87.28;100768.84;6044963;29;20531;-80
2022/11/15 16:37:46;;;;;;;6.47;3.33;;;;;;;10.69;87.20;100764.88;6043753;29;20551;-78
2022/11/15 16:41:06;;;;;;;7.57;4.60;;;;;;;10.73;87.59;100755.53;6040198;29;20320;-79
2022/11/15 16:44:29;;;;;;;6.50;5.67;;;;;;;10.72;87.27;100754.66;6048334;29;20325;-79
2022/11/15 16:47:50;;;;;;;5.10;3.40;;;;;;;10.72;86.75;100762.75;6038614;29;20235;-81
2022/11/15 16:51:11;;;;;;;4.70;3.57;;;;;;;10.75;87.50;100749.00;6041378;29;20253;-77
2022/11/15 16:54:33;;;;;;;4.43;4.03;;;;;;;10.70;86.80;100748.56;6048444;29;20261;-79
2022/11/15 16:57:54;;;;;;;5.07;4.07;;;;;;;10.62;88.00;100752.97;6047685;29;20233;-80